^^
Meteo Knjazevac Station Historical Data
Daily Summary for September 17, 2021 Units:  Metric    English   Both
Daily Weekly Monthly Yearly Custom
  High: Low: Average:
Temperature: 17 °C 11.2 °C 14 °C
Dew Point: 14.9 °C 10 °C 12.4 °C
Humidity: 96% 83% 90%
Wind Speed: 8km/h 0km/h 2.4km/h
Wind Gust: 12.9km/h - -
Wind- - SSW
Pressure: 1011.7 hPa 1009.7 hPa -
Precipitation: 1.02 mm    
Historical Graphs
 
 
Tabular Data for September 17, 2021
Time Temperature Dew Point Pressure Wind Wind Speed Wind Gust Humidity Rainfall Rate (Hourly) solar Conditions
00:00 13.9 °C 12.4 °C 1011.7 hPa NW 1.6 km/h 3.2 km/h 91% 0 mm 0 W/m2
00:10 13.8 °C 12.5 °C 1011.7 hPa Calm   3.2 km/h 92% 0 mm 0 W/m2
00:20 13.7 °C 12.3 °C 1011.7 hPa NNE 1.6 km/h 4.8 km/h 91% 0 mm 0 W/m2
00:30 13.6 °C 12.2 °C 1011.7 hPa Calm   4.8 km/h 91% 0 mm 0 W/m2
00:40 13.4 °C 12 °C 1011.7 hPa Calm   3.2 km/h 91% 0 mm 0 W/m2
00:50 13.3 °C 12.2 °C 1011.7 hPa NNW 1.6 km/h 3.2 km/h 93% 0 mm 0 W/m2
01:00 13.2 °C 12.1 °C 1011.4 hPa Calm   3.2 km/h 93% 0 mm 0 W/m2
01:10 13.1 °C 12.2 °C 1011.4 hPa Calm   3.2 km/h 94% 0 mm 0 W/m2
01:20 13.2 °C 12.1 °C 1011.4 hPa SE 4.8 km/h 9.7 km/h 93% 0 mm 0 W/m2
01:30 13.2 °C 12.1 °C 1011.1 hPa South 1.6 km/h 8 km/h 93% 0 mm 0 W/m2
01:40 13 °C 11.9 °C 1011.1 hPa SW 3.2 km/h 9.7 km/h 93% 0 mm 0 W/m2
01:50 13 °C 11.9 °C 1011.1 hPa Calm   8 km/h 93% 0 mm 0 W/m2
02:00 13 °C 11.9 °C 1011.1 hPa Calm   3.2 km/h 93% 0 mm 0 W/m2
02:10 13.1 °C 12 °C 1010.7 hPa ENE 1.6 km/h 4.8 km/h 93% 0 mm 0 W/m2
02:20 13.2 °C 11.8 °C 1011.1 hPa SE 3.2 km/h 8 km/h 91% 0 mm 0 W/m2
02:30 13.2 °C 11.8 °C 1010.7 hPa South 1.6 km/h 8 km/h 91% 0 mm 0 W/m2
02:40 13.1 °C 11.7 °C 1010.7 hPa Calm   8 km/h 91% 0 mm 0 W/m2
02:50 13.1 °C 11.7 °C 1011.1 hPa ENE 1.6 km/h 6.4 km/h 91% 0 mm 0 W/m2
03:00 13 °C 11.6 °C 1010.7 hPa Calm   8 km/h 91% 0 mm 0 W/m2
03:10 12.9 °C 11.4 °C 1010.7 hPa Calm   4.8 km/h 91% 0 mm 0 W/m2
03:20 12.8 °C 11.4 °C 1010.7 hPa East 1.6 km/h 6.4 km/h 91% 0 mm 0 W/m2
03:30 12.7 °C 11.3 °C 1010.7 hPa SE 3.2 km/h 12.9 km/h 91% 0 mm 0 W/m2
03:40 12.7 °C 11.3 °C 1010.7 hPa SSE 4.8 km/h 11.3 km/h 91% 0 mm 0 W/m2
03:50 12.7 °C 11.3 °C 1010.7 hPa SE 4.8 km/h 12.9 km/h 91% 0 mm 0 W/m2
04:00 12.6 °C 11.2 °C 1010.7 hPa SE 1.6 km/h 9.7 km/h 91% 0 mm 0 W/m2
04:10 12.5 °C 11.1 °C 1010.7 hPa ESE 4.8 km/h 9.7 km/h 91% 0 mm 0 W/m2
04:20 12.4 °C 10.9 °C 1010.4 hPa ESE 3.2 km/h 12.9 km/h 91% 0 mm 0 W/m2
04:30 12.3 °C 10.9 °C 1010.4 hPa SSE 4.8 km/h 12.9 km/h 91% 0 mm 0 W/m2
04:40 12.2 °C 10.8 °C 1010.7 hPa NE 3.2 km/h 6.4 km/h 91% 0 mm 0 W/m2
04:50 12 °C 10.6 °C 1010.4 hPa ESE 1.6 km/h 8 km/h 91% 0 mm 0 W/m2
05:00 11.9 °C 10.5 °C 1010.4 hPa NNW 1.6 km/h 3.2 km/h 91% 0 mm 0 W/m2
05:10 11.9 °C 10.8 °C 1010.4 hPa East 1.6 km/h 4.8 km/h 93% 0 mm 5 W/m2
05:20 11.6 °C 10.2 °C 1010.7 hPa Calm   4.8 km/h 91% 0 mm 13 W/m2
05:30 11.4 °C 10 °C 1010.7 hPa NW 1.6 km/h 4.8 km/h 91% 0 mm 31 W/m2
05:40 11.3 °C 10.4 °C 1010.7 hPa Calm   6.4 km/h 94% 0 mm 46 W/m2
05:50 11.3 °C 10.4 °C 1010.7 hPa Calm   4.8 km/h 94% 0 mm 54 W/m2
06:00 11.2 °C 10.3 °C 1010.7 hPa West 1.6 km/h 4.8 km/h 94% 0 mm 56 W/m2
06:10 11.3 °C 10.6 °C 1010.4 hPa Calm   3.2 km/h 95% 0 mm 78 W/m2
06:20 11.6 °C 11 °C 1010.4 hPa Calm   3.2 km/h 96% 0 mm 118 W/m2
06:30 11.9 °C 11.3 °C 1010.4 hPa NNE 1.6 km/h 6.4 km/h 96% 0 mm 120 W/m2
06:40 12.2 °C 11.6 °C 1010.4 hPa North 1.6 km/h 4.8 km/h 96% 0 mm 193 W/m2
06:50 12.8 °C 12 °C 1010.7 hPa South 1.6 km/h 8 km/h 95% 0 mm 196 W/m2
07:00 13.1 °C 12.2 °C 1010.7 hPa West 3.2 km/h 8 km/h 94% 0 mm 112 W/m2
07:10 13.5 °C 12.4 °C 1010.7 hPa SE 4.8 km/h 9.7 km/h 93% 0 mm 92 W/m2
07:20 13.8 °C 12.3 °C 1010.7 hPa SE 3.2 km/h 9.7 km/h 91% 0 mm 98 W/m2
07:30 13.8 °C 12.7 °C 1010.7 hPa SSW 1.6 km/h 6.4 km/h 93% 0 mm 110 W/m2
07:40 14 °C 13.1 °C 1010.7 hPa SW 1.6 km/h 4.8 km/h 94% 0 mm 143 W/m2
07:50 14.2 °C 13.2 °C 1010.4 hPa WSW 1.6 km/h 3.2 km/h 94% 0 mm 139 W/m2
08:00 14.3 °C 13.2 °C 1010.4 hPa WNW 1.6 km/h 3.2 km/h 93% 0 mm 100 W/m2
08:10 14.5 °C 13.4 °C 1010.4 hPa WSW 1.6 km/h 3.2 km/h 93% 0 mm 116 W/m2
08:20 14.6 °C 13.5 °C 1010.4 hPa West 1.6 km/h 3.2 km/h 93% 0 mm 218 W/m2
08:30 14.9 °C 13.4 °C 1010.4 hPa Calm   4.8 km/h 91% 0 mm 184 W/m2
08:40 15.1 °C 13.7 °C 1010.4 hPa West 1.6 km/h 3.2 km/h 91% 0 mm 176 W/m2
08:50 15.4 °C 13.9 °C 1010.4 hPa WSW 1.6 km/h 3.2 km/h 91% 0 mm 210 W/m2
09:00 15.7 °C 14.6 °C 1010.7 hPa Calm   3.2 km/h 93% 0 mm 223 W/m2
09:10 15.9 °C 14.3 °C 1010.7 hPa West 1.6 km/h 8 km/h 90% 0 mm 150 W/m2
09:30 15.8 °C 13.1 °C 1010.7 hPa SW 8 km/h 12.9 km/h 84% 0 mm 165 W/m2
09:40 15.8 °C 13.3 °C 1010.7 hPa SW 4.8 km/h 12.9 km/h 85% 0 mm 248 W/m2
09:50 15.9 °C 13.4 °C 1010.4 hPa SSW 4.8 km/h 11.3 km/h 85% 0 mm 170 W/m2
10:00 15.8 °C 13.3 °C 1010.4 hPa SW 8 km/h 12.9 km/h 85% 0 mm 109 W/m2
10:10 15.8 °C 13.3 °C 1010.4 hPa SW 8 km/h 11.3 km/h 85% 0 mm 90 W/m2
10:20 15.7 °C 13.2 °C 1010.4 hPa SW 3.2 km/h 9.7 km/h 85% 0 mm 111 W/m2
10:30 15.7 °C 13.4 °C 1010 hPa SW 4.8 km/h 9.7 km/h 86% 0 mm 196 W/m2
10:40 15.8 °C 13.8 °C 1010 hPa WSW 3.2 km/h 8 km/h 88% 0 mm 227 W/m2
10:50 16.1 °C 14.1 °C 1010 hPa SW 3.2 km/h 6.4 km/h 88% 0 mm 378 W/m2
11:00 16.6 °C 14.3 °C 1010 hPa SW 3.2 km/h 9.7 km/h 86% 0 mm 405 W/m2
11:10 16.9 °C 14.2 °C 1010 hPa SW 4.8 km/h 9.7 km/h 84% 0 mm 274 W/m2
11:20 16.9 °C 14.3 °C 1010 hPa WSW 3.2 km/h 9.7 km/h 85% 0 mm 202 W/m2
11:30 16.9 °C 14.2 °C 1010 hPa WNW 3.2 km/h 9.7 km/h 84% 0 mm 183 W/m2
11:40 17 °C 14.3 °C 1010 hPa WSW 3.2 km/h 11.3 km/h 84% 0 mm 177 W/m2
11:50 17 °C 14.3 °C 1010 hPa WSW 4.8 km/h 8 km/h 84% 0 mm 92 W/m2
12:00 16.9 °C 14 °C 1010 hPa WSW 8 km/h 11.3 km/h 83% 0 mm 58 W/m2
12:10 16.7 °C 13.8 °C 1010.4 hPa SW 4.8 km/h 9.7 km/h 83% 0 mm 103 W/m2
12:20 16.6 °C 14.1 °C 1010 hPa SW 3.2 km/h 12.9 km/h 85% 0.25 mm 244 W/m2
12:30 16.7 °C 14.9 °C 1010 hPa SSW 3.2 km/h 8 km/h 89% 0 mm 291 W/m2
12:40 16.8 °C 14.8 °C 1010 hPa SW 3.2 km/h 8 km/h 88% 0 mm 289 W/m2
12:50 16.9 °C 14.9 °C 1009.7 hPa SW 3.2 km/h 8 km/h 88% 0 mm 291 W/m2
Knjazevac, Serbia
Compliments of Weather Underground - 2 mb